createdAt,value
2018-12-12T01:00:59.608Z,67.55
2018-12-12T01:06:16.741Z,67.71
2018-12-12T01:11:26.426Z,67.73
2018-12-12T01:16:34.883Z,67.47
2018-12-12T01:21:38.232Z,67.50
2018-12-12T01:26:41.603Z,66.85
2018-12-12T02:35:21.940Z,67.96
2018-12-12T02:40:26.034Z,67.86
2018-12-12T02:45:29.393Z,66.96
2018-12-12T02:50:33.489Z,67.75
2018-12-12T02:55:36.815Z,67.43
2018-12-12T04:04:04.584Z,66.50
2018-12-12T04:09:07.916Z,66.74
2018-12-12T04:14:12.021Z,66.84
2018-12-12T04:19:15.364Z,67.01
2018-12-12T04:24:19.464Z,66.74
2018-12-12T04:29:22.797Z,66.21
2018-12-12T05:31:28.993Z,70.35
2018-12-12T05:36:32.333Z,71.24
2018-12-12T05:41:35.675Z,71.30
2018-12-12T05:46:42.022Z,71.94
2018-12-12T05:51:43.902Z,71.78
2018-12-12T05:56:52.304Z,71.58
2018-12-12T07:05:12.646Z,73.47
2018-12-12T07:10:15.986Z,72.27
2018-12-12T07:15:19.316Z,72.58
2018-12-12T07:20:30.977Z,72.12
2018-12-12T07:25:34.318Z,73.17
2018-12-12T08:34:01.788Z,70.92
2018-12-12T08:39:05.129Z,70.74
2018-12-12T08:44:08.457Z,71.84
2018-12-12T08:49:11.785Z,70.57
2018-12-12T08:54:15.105Z,71.12
2018-12-12T08:59:18.435Z,70.84
2018-12-12T10:01:22.734Z,68.99
2018-12-12T10:06:26.056Z,68.83
2018-12-12T10:11:29.385Z,68.63
2018-12-12T10:16:33.521Z,68.87
2018-12-12T10:21:37.604Z,69.18
2018-12-12T10:26:40.936Z,67.62
2018-12-12T11:35:07.185Z,70.43
2018-12-12T11:40:10.508Z,69.28
2018-12-12T11:45:13.832Z,69.94
2018-12-12T11:50:17.161Z,69.44
2018-12-12T11:55:20.501Z,70.35
2018-12-12T12:00:23.840Z,70.62
2018-12-12T13:02:30.102Z,69.67
2018-12-12T13:07:33.436Z,68.42
2018-12-12T13:12:37.520Z,68.81
2018-12-12T13:17:40.868Z,67.94
2018-12-12T13:22:44.230Z,68.20
2018-12-12T13:27:47.555Z,68.11
2018-12-12T14:30:18.823Z,66.27
2018-12-12T14:35:22.157Z,66.30
2018-12-12T14:40:25.492Z,66.57
2018-12-12T14:45:28.833Z,66.87
2018-12-12T14:50:32.191Z,67.15
2018-12-12T14:55:35.523Z,66.66
2018-12-12T16:04:06.176Z,68.58
2018-12-12T16:09:09.522Z,68.35
2018-12-12T16:14:12.868Z,68.15
2018-12-12T16:19:16.249Z,68.27
2018-12-12T16:24:19.588Z,68.01
2018-12-12T16:29:22.948Z,68.22
2018-12-12T16:34:27.233Z,68.24
2018-12-12T16:39:30.568Z,68.27
2018-12-12T16:44:33.940Z,68.09
2018-12-12T16:49:37.301Z,68.25
2018-12-12T16:54:41.399Z,68.31
2018-12-12T16:59:44.754Z,68.52
2018-12-12T17:04:49.001Z,69.10
2018-12-12T17:09:52.327Z,69.07
2018-12-12T17:14:55.676Z,69.22
2018-12-12T17:19:59.074Z,68.88
2018-12-12T17:25:02.448Z,68.89
2018-12-12T17:30:05.798Z,69.01
2018-12-12T17:35:09.211Z,69.43
2018-12-12T17:40:12.499Z,69.68
2018-12-12T17:45:15.824Z,69.35
2018-12-12T17:50:19.201Z,69.29
2018-12-12T17:55:22.565Z,68.85
2018-12-12T18:00:25.916Z,68.84
2018-12-12T18:05:29.273Z,68.65
2018-12-12T18:10:32.600Z,68.52
2018-12-12T18:15:36.225Z,68.27
2018-12-12T18:20:40.329Z,68.33
2018-12-12T18:25:43.657Z,67.93
2018-12-12T18:30:47.764Z,67.81
2018-12-12T18:35:51.135Z,67.83
2018-12-12T18:40:54.465Z,67.72
2018-12-12T18:45:57.806Z,67.83
2018-12-12T18:51:01.187Z,67.74
2018-12-12T18:56:04.524Z,67.34
2018-12-12T19:01:07.881Z,67.01
2018-12-12T19:06:11.239Z,66.56
2018-12-12T19:11:14.580Z,66.16
2018-12-12T19:16:17.928Z,65.92
2018-12-12T19:21:21.291Z,66.06
2018-12-12T19:26:24.620Z,66.30
2018-12-12T19:31:28.720Z,66.39
2018-12-12T19:36:32.074Z,65.93
2018-12-12T19:41:35.419Z,66.05
2018-12-12T19:46:38.756Z,66.42
2018-12-12T19:51:42.136Z,66.55
2018-12-12T19:56:45.473Z,66.52
2018-12-12T20:01:48.980Z,66.62
2018-12-12T20:06:52.311Z,66.78
2018-12-12T20:11:55.698Z,67.04
2018-12-12T20:16:59.036Z,67.35
2018-12-12T20:22:03.177Z,67.39
2018-12-12T20:27:07.284Z,67.43
2018-12-12T20:32:10.676Z,67.27
2018-12-12T20:37:13.961Z,67.47
2018-12-12T20:42:17.344Z,67.31
2018-12-12T20:47:20.686Z,67.20
2018-12-12T20:52:24.003Z,67.29
2018-12-12T20:57:27.354Z,67.55
2018-12-12T21:02:31.498Z,67.89
2018-12-12T21:07:35.655Z,68.19
2018-12-12T21:12:38.996Z,68.16
2018-12-12T21:17:42.340Z,68.28
2018-12-12T21:22:45.824Z,68.48
2018-12-12T21:33:07.142Z,68.59
2018-12-12T21:38:13.888Z,68.55
2018-12-12T21:43:17.665Z,68.53
2018-12-12T21:48:31.044Z,68.44
2018-12-12T21:53:35.494Z,68.51
2018-12-12T21:58:40.331Z,68.71
2018-12-12T22:03:44.144Z,68.53
2018-12-12T22:08:48.748Z,69.00
2018-12-12T22:13:52.127Z,69.23
2018-12-12T22:18:56.244Z,69.25
2018-12-12T22:23:59.591Z,69.02
2018-12-12T22:29:02.931Z,69.11
2018-12-12T22:34:06.252Z,69.09
2018-12-12T22:39:09.589Z,69.23
2018-12-12T22:44:12.936Z,69.25
2018-12-12T22:49:16.282Z,69.15
2018-12-12T22:54:19.620Z,69.19
2018-12-12T22:59:23.715Z,69.12
2018-12-12T23:30:43.749Z,69.09
2018-12-12T23:35:47.850Z,68.89
2018-12-12T23:40:51.183Z,68.99
2018-12-12T23:45:55.282Z,68.88
2018-12-12T23:50:58.624Z,68.48
2018-12-12T23:56:02.720Z,68.35
